sensor_id;sensor_type;location;lat;lon;timestamp;P1;durP1;ratioP1;P2;durP2;ratioP2
25824;SDS011;13658;44.534;18.694;2022-10-16T00:03:40;42.00;;;24.42;;
25824;SDS011;13658;44.534;18.694;2022-10-16T00:06:07;45.35;;;25.17;;
25824;SDS011;13658;44.534;18.694;2022-10-16T00:08:35;45.30;;;26.15;;
25824;SDS011;13658;44.534;18.694;2022-10-16T00:13:35;48.25;;;26.63;;
25824;SDS011;13658;44.534;18.694;2022-10-16T00:16:03;46.35;;;25.58;;
25824;SDS011;13658;44.534;18.694;2022-10-16T00:18:29;50.70;;;27.80;;
25824;SDS011;13658;44.534;18.694;2022-10-16T00:21:00;51.53;;;28.17;;
25824;SDS011;13658;44.534;18.694;2022-10-16T00:23:34;42.85;;;23.40;;
25824;SDS011;13658;44.534;18.694;2022-10-16T00:26:02;42.70;;;23.52;;
25824;SDS011;13658;44.534;18.694;2022-10-16T00:28:32;41.63;;;23.17;;
25824;SDS011;13658;44.534;18.694;2022-10-16T00:30:58;42.55;;;23.50;;
25824;SDS011;13658;44.534;18.694;2022-10-16T00:33:28;39.97;;;23.70;;
25824;SDS011;13658;44.534;18.694;2022-10-16T00:35:53;42.00;;;24.08;;
25824;SDS011;13658;44.534;18.694;2022-10-16T00:38:22;42.55;;;22.98;;
25824;SDS011;13658;44.534;18.694;2022-10-16T00:40:48;39.05;;;21.80;;
25824;SDS011;13658;44.534;18.694;2022-10-16T00:43:32;36.63;;;22.45;;
25824;SDS011;13658;44.534;18.694;2022-10-16T00:46:01;38.22;;;23.30;;
25824;SDS011;13658;44.534;18.694;2022-10-16T00:48:29;40.40;;;23.92;;
25824;SDS011;13658;44.534;18.694;2022-10-16T00:50:56;44.35;;;24.58;;
25824;SDS011;13658;44.534;18.694;2022-10-16T00:53:24;42.42;;;23.50;;
25824;SDS011;13658;44.534;18.694;2022-10-16T00:55:50;35.80;;;21.75;;
25824;SDS011;13658;44.534;18.694;2022-10-16T00:58:17;44.80;;;22.67;;
25824;SDS011;13658;44.534;18.694;2022-10-16T01:00:43;38.97;;;21.23;;
25824;SDS011;13658;44.534;18.694;2022-10-16T01:06:00;41.85;;;23.00;;
25824;SDS011;13658;44.534;18.694;2022-10-16T01:14:27;30.80;;;17.90;;
25824;SDS011;13658;44.534;18.694;2022-10-16T01:17:02;28.65;;;17.95;;
25824;SDS011;13658;44.534;18.694;2022-10-16T01:19:44;28.23;;;17.83;;
25824;SDS011;13658;44.534;18.694;2022-10-16T01:22:24;23.98;;;15.13;;
25824;SDS011;13658;44.534;18.694;2022-10-16T01:24:53;22.88;;;14.55;;
25824;SDS011;13658;44.534;18.694;2022-10-16T01:27:25;28.48;;;16.65;;
25824;SDS011;13658;44.534;18.694;2022-10-16T01:29:58;31.20;;;17.38;;
25824;SDS011;13658;44.534;18.694;2022-10-16T01:37:40;30.45;;;17.85;;
25824;SDS011;13658;44.534;18.694;2022-10-16T01:40:19;31.35;;;17.98;;
25824;SDS011;13658;44.534;18.694;2022-10-16T01:42:53;32.65;;;18.52;;
25824;SDS011;13658;44.534;18.694;2022-10-16T01:45:26;31.67;;;18.98;;
25824;SDS011;13658;44.534;18.694;2022-10-16T01:47:55;36.13;;;19.73;;
25824;SDS011;13658;44.534;18.694;2022-10-16T01:50:23;30.42;;;19.20;;
25824;SDS011;13658;44.534;18.694;2022-10-16T01:52:51;31.13;;;19.15;;
25824;SDS011;13658;44.534;18.694;2022-10-16T01:55:24;34.25;;;18.75;;
25824;SDS011;13658;44.534;18.694;2022-10-16T01:57:57;32.30;;;18.02;;
25824;SDS011;13658;44.534;18.694;2022-10-16T02:00:27;30.70;;;18.98;;
25824;SDS011;13658;44.534;18.694;2022-10-16T02:02:54;31.92;;;18.00;;
25824;SDS011;13658;44.534;18.694;2022-10-16T02:05:27;32.40;;;18.75;;
25824;SDS011;13658;44.534;18.694;2022-10-16T02:08:04;31.10;;;18.85;;
25824;SDS011;13658;44.534;18.694;2022-10-16T02:10:30;32.15;;;19.55;;
25824;SDS011;13658;44.534;18.694;2022-10-16T02:13:02;34.35;;;19.60;;
25824;SDS011;13658;44.534;18.694;2022-10-16T02:15:33;32.30;;;19.35;;
25824;SDS011;13658;44.534;18.694;2022-10-16T02:17:59;32.85;;;19.90;;
25824;SDS011;13658;44.534;18.694;2022-10-16T02:20:26;31.25;;;18.38;;
25824;SDS011;13658;44.534;18.694;2022-10-16T02:22:55;31.08;;;18.15;;
25824;SDS011;13658;44.534;18.694;2022-10-16T02:30:36;29.08;;;16.88;;
25824;SDS011;13658;44.534;18.694;2022-10-16T02:33:02;24.15;;;15.88;;
25824;SDS011;13658;44.534;18.694;2022-10-16T02:35:32;30.27;;;17.13;;
25824;SDS011;13658;44.534;18.694;2022-10-16T02:37:58;24.80;;;16.50;;
25824;SDS011;13658;44.534;18.694;2022-10-16T02:40:25;30.25;;;17.60;;
25824;SDS011;13658;44.534;18.694;2022-10-16T02:42:53;27.88;;;17.02;;
25824;SDS011;13658;44.534;18.694;2022-10-16T02:45:20;28.65;;;17.85;;
25824;SDS011;13658;44.534;18.694;2022-10-16T02:47:47;32.30;;;17.48;;
25824;SDS011;13658;44.534;18.694;2022-10-16T02:50:13;30.35;;;17.90;;
25824;SDS011;13658;44.534;18.694;2022-10-16T02:52:39;30.13;;;19.40;;
25824;SDS011;13658;44.534;18.694;2022-10-16T02:55:05;34.42;;;18.33;;
25824;SDS011;13658;44.534;18.694;2022-10-16T02:57:32;32.42;;;19.25;;
25824;SDS011;13658;44.534;18.694;2022-10-16T02:59:58;34.97;;;21.30;;
25824;SDS011;13658;44.534;18.694;2022-10-16T03:02:24;34.47;;;21.35;;
25824;SDS011;13658;44.534;18.694;2022-10-16T03:04:53;34.13;;;20.60;;
25824;SDS011;13658;44.534;18.694;2022-10-16T03:07:19;37.05;;;19.77;;
25824;SDS011;13658;44.534;18.694;2022-10-16T03:09:45;33.47;;;19.92;;
25824;SDS011;13658;44.534;18.694;2022-10-16T03:12:11;33.88;;;18.67;;
25824;SDS011;13658;44.534;18.694;2022-10-16T03:14:37;37.88;;;20.35;;
25824;SDS011;13658;44.534;18.694;2022-10-16T03:17:05;32.05;;;19.98;;
25824;SDS011;13658;44.534;18.694;2022-10-16T03:19:31;30.88;;;19.00;;
25824;SDS011;13658;44.534;18.694;2022-10-16T03:21:57;29.50;;;18.60;;
25824;SDS011;13658;44.534;18.694;2022-10-16T03:24:23;34.83;;;19.45;;
25824;SDS011;13658;44.534;18.694;2022-10-16T03:26:49;31.63;;;18.88;;
25824;SDS011;13658;44.534;18.694;2022-10-16T03:29:15;32.60;;;19.63;;
25824;SDS011;13658;44.534;18.694;2022-10-16T03:31:40;30.05;;;18.58;;
25824;SDS011;13658;44.534;18.694;2022-10-16T03:34:06;33.50;;;18.83;;
25824;SDS011;13658;44.534;18.694;2022-10-16T03:36:32;32.95;;;18.80;;
25824;SDS011;13658;44.534;18.694;2022-10-16T03:38:58;34.90;;;20.15;;
25824;SDS011;13658;44.534;18.694;2022-10-16T03:41:24;32.42;;;18.85;;
25824;SDS011;13658;44.534;18.694;2022-10-16T03:43:50;31.33;;;19.58;;
25824;SDS011;13658;44.534;18.694;2022-10-16T03:46:17;35.35;;;20.45;;
25824;SDS011;13658;44.534;18.694;2022-10-16T03:48:43;34.03;;;19.58;;
25824;SDS011;13658;44.534;18.694;2022-10-16T03:51:09;30.95;;;18.38;;
25824;SDS011;13658;44.534;18.694;2022-10-16T03:53:35;38.72;;;18.02;;
25824;SDS011;13658;44.534;18.694;2022-10-16T03:56:01;29.77;;;17.65;;
25824;SDS011;13658;44.534;18.694;2022-10-16T03:58:27;29.05;;;17.30;;
25824;SDS011;13658;44.534;18.694;2022-10-16T04:00:53;27.60;;;17.63;;
25824;SDS011;13658;44.534;18.694;2022-10-16T04:03:19;29.30;;;17.33;;
25824;SDS011;13658;44.534;18.694;2022-10-16T04:05:46;31.33;;;17.40;;
25824;SDS011;13658;44.534;18.694;2022-10-16T04:08:12;29.15;;;17.20;;
25824;SDS011;13658;44.534;18.694;2022-10-16T04:10:38;27.88;;;17.63;;
25824;SDS011;13658;44.534;18.694;2022-10-16T04:13:04;31.55;;;17.48;;
25824;SDS011;13658;44.534;18.694;2022-10-16T04:15:30;29.92;;;16.40;;
25824;SDS011;13658;44.534;18.694;2022-10-16T04:17:56;27.40;;;17.63;;
25824;SDS011;13658;44.534;18.694;2022-10-16T04:20:22;35.08;;;17.85;;
25824;SDS011;13658;44.534;18.694;2022-10-16T04:22:47;34.42;;;17.95;;
25824;SDS011;13658;44.534;18.694;2022-10-16T04:25:13;31.83;;;17.35;;
25824;SDS011;13658;44.534;18.694;2022-10-16T04:27:39;33.15;;;21.13;;
25824;SDS011;13658;44.534;18.694;2022-10-16T04:30:05;34.53;;;20.65;;
25824;SDS011;13658;44.534;18.694;2022-10-16T04:32:32;40.40;;;20.95;;
25824;SDS011;13658;44.534;18.694;2022-10-16T04:34:58;29.25;;;17.33;;
25824;SDS011;13658;44.534;18.694;2022-10-16T04:37:24;33.60;;;19.20;;
25824;SDS011;13658;44.534;18.694;2022-10-16T04:39:52;27.02;;;15.98;;
25824;SDS011;13658;44.534;18.694;2022-10-16T04:42:18;30.13;;;17.95;;
25824;SDS011;13658;44.534;18.694;2022-10-16T04:44:45;30.38;;;18.15;;
25824;SDS011;13658;44.534;18.694;2022-10-16T04:47:12;31.20;;;18.63;;
25824;SDS011;13658;44.534;18.694;2022-10-16T04:49:39;32.47;;;19.35;;
25824;SDS011;13658;44.534;18.694;2022-10-16T04:52:05;34.95;;;19.83;;
25824;SDS011;13658;44.534;18.694;2022-10-16T04:54:31;31.15;;;19.58;;
25824;SDS011;13658;44.534;18.694;2022-10-16T04:56:57;34.67;;;20.13;;
25824;SDS011;13658;44.534;18.694;2022-10-16T04:59:23;33.15;;;20.15;;
25824;SDS011;13658;44.534;18.694;2022-10-16T05:01:49;33.97;;;19.17;;
25824;SDS011;13658;44.534;18.694;2022-10-16T05:04:15;31.95;;;18.10;;
25824;SDS011;13658;44.534;18.694;2022-10-16T05:06:51;36.97;;;18.75;;
25824;SDS011;13658;44.534;18.694;2022-10-16T05:09:19;32.42;;;20.75;;
25824;SDS011;13658;44.534;18.694;2022-10-16T05:11:45;34.03;;;19.80;;
25824;SDS011;13658;44.534;18.694;2022-10-16T05:14:11;30.67;;;18.50;;
25824;SDS011;13658;44.534;18.694;2022-10-16T05:16:38;33.45;;;19.63;;
25824;SDS011;13658;44.534;18.694;2022-10-16T05:19:04;38.35;;;22.48;;
25824;SDS011;13658;44.534;18.694;2022-10-16T05:21:30;36.90;;;22.05;;
25824;SDS011;13658;44.534;18.694;2022-10-16T05:23:57;38.03;;;22.75;;
25824;SDS011;13658;44.534;18.694;2022-10-16T05:26:23;35.05;;;22.70;;
25824;SDS011;13658;44.534;18.694;2022-10-16T05:28:49;37.60;;;21.80;;
25824;SDS011;13658;44.534;18.694;2022-10-16T05:31:15;34.65;;;20.95;;
25824;SDS011;13658;44.534;18.694;2022-10-16T05:33:42;38.05;;;23.75;;
25824;SDS011;13658;44.534;18.694;2022-10-16T05:36:10;32.17;;;19.48;;
25824;SDS011;13658;44.534;18.694;2022-10-16T05:38:36;36.55;;;22.02;;
25824;SDS011;13658;44.534;18.694;2022-10-16T05:41:03;37.85;;;21.38;;
25824;SDS011;13658;44.534;18.694;2022-10-16T05:43:31;36.22;;;20.33;;
25824;SDS011;13658;44.534;18.694;2022-10-16T05:45:59;31.00;;;20.02;;
25824;SDS011;13658;44.534;18.694;2022-10-16T05:48:29;39.17;;;20.52;;
25824;SDS011;13658;44.534;18.694;2022-10-16T05:50:57;32.60;;;18.92;;
25824;SDS011;13658;44.534;18.694;2022-10-16T05:53:24;29.58;;;17.67;;
25824;SDS011;13658;44.534;18.694;2022-10-16T05:55:54;29.60;;;17.58;;
25824;SDS011;13658;44.534;18.694;2022-10-16T05:58:21;29.48;;;16.13;;
25824;SDS011;13658;44.534;18.694;2022-10-16T06:00:54;25.30;;;15.82;;
25824;SDS011;13658;44.534;18.694;2022-10-16T06:03:32;27.88;;;16.38;;
25824;SDS011;13658;44.534;18.694;2022-10-16T06:05:59;28.23;;;15.98;;
25824;SDS011;13658;44.534;18.694;2022-10-16T06:08:32;28.15;;;16.35;;
25824;SDS011;13658;44.534;18.694;2022-10-16T06:11:04;29.95;;;17.70;;
25824;SDS011;13658;44.534;18.694;2022-10-16T06:13:37;26.45;;;17.05;;
25824;SDS011;13658;44.534;18.694;2022-10-16T06:16:04;24.73;;;15.25;;
25824;SDS011;13658;44.534;18.694;2022-10-16T06:18:30;27.63;;;16.02;;
25824;SDS011;13658;44.534;18.694;2022-10-16T06:20:56;24.20;;;15.07;;
25824;SDS011;13658;44.534;18.694;2022-10-16T06:23:24;25.77;;;15.98;;
25824;SDS011;13658;44.534;18.694;2022-10-16T06:25:50;19.70;;;13.43;;
25824;SDS011;13658;44.534;18.694;2022-10-16T06:28:16;22.05;;;13.93;;
25824;SDS011;13658;44.534;18.694;2022-10-16T06:30:42;25.27;;;15.10;;
25824;SDS011;13658;44.534;18.694;2022-10-16T06:33:11;21.30;;;14.35;;
25824;SDS011;13658;44.534;18.694;2022-10-16T06:35:37;24.30;;;15.15;;
25824;SDS011;13658;44.534;18.694;2022-10-16T06:38:03;23.23;;;14.43;;
25824;SDS011;13658;44.534;18.694;2022-10-16T06:40:29;22.52;;;15.43;;
25824;SDS011;13658;44.534;18.694;2022-10-16T06:42:55;22.80;;;15.18;;
25824;SDS011;13658;44.534;18.694;2022-10-16T06:45:21;30.35;;;17.67;;
25824;SDS011;13658;44.534;18.694;2022-10-16T06:47:47;24.25;;;15.63;;
25824;SDS011;13658;44.534;18.694;2022-10-16T06:50:13;24.80;;;17.90;;
25824;SDS011;13658;44.534;18.694;2022-10-16T06:52:39;28.98;;;19.48;;
25824;SDS011;13658;44.534;18.694;2022-10-16T06:55:05;27.92;;;18.98;;
25824;SDS011;13658;44.534;18.694;2022-10-16T06:57:31;26.73;;;18.75;;
25824;SDS011;13658;44.534;18.694;2022-10-16T06:59:57;30.30;;;20.33;;
25824;SDS011;13658;44.534;18.694;2022-10-16T07:02:23;28.05;;;19.48;;
25824;SDS011;13658;44.534;18.694;2022-10-16T07:04:49;28.45;;;18.92;;
25824;SDS011;13658;44.534;18.694;2022-10-16T07:07:15;24.98;;;17.60;;
25824;SDS011;13658;44.534;18.694;2022-10-16T07:09:41;26.15;;;18.85;;
25824;SDS011;13658;44.534;18.694;2022-10-16T07:12:07;21.95;;;16.17;;
25824;SDS011;13658;44.534;18.694;2022-10-16T07:14:33;27.70;;;18.38;;
25824;SDS011;13658;44.534;18.694;2022-10-16T07:16:59;25.35;;;15.40;;
25824;SDS011;13658;44.534;18.694;2022-10-16T07:19:24;23.50;;;15.90;;
25824;SDS011;13658;44.534;18.694;2022-10-16T07:21:50;26.45;;;16.95;;
25824;SDS011;13658;44.534;18.694;2022-10-16T07:24:16;22.30;;;15.93;;
25824;SDS011;13658;44.534;18.694;2022-10-16T07:26:43;22.88;;;14.65;;
25824;SDS011;13658;44.534;18.694;2022-10-16T07:29:12;32.90;;;15.10;;
25824;SDS011;13658;44.534;18.694;2022-10-16T07:31:47;21.63;;;14.18;;
25824;SDS011;13658;44.534;18.694;2022-10-16T07:34:14;20.42;;;14.63;;
25824;SDS011;13658;44.534;18.694;2022-10-16T07:36:43;21.65;;;13.77;;
25824;SDS011;13658;44.534;18.694;2022-10-16T07:39:11;20.77;;;14.73;;
25824;SDS011;13658;44.534;18.694;2022-10-16T07:41:38;27.85;;;16.95;;
25824;SDS011;13658;44.534;18.694;2022-10-16T07:44:04;31.60;;;19.05;;
25824;SDS011;13658;44.534;18.694;2022-10-16T07:46:30;168.45;;;81.57;;
25824;SDS011;13658;44.534;18.694;2022-10-16T07:48:56;83.13;;;43.15;;
25824;SDS011;13658;44.534;18.694;2022-10-16T07:51:23;52.03;;;27.27;;
25824;SDS011;13658;44.534;18.694;2022-10-16T07:53:50;21.50;;;14.35;;
25824;SDS011;13658;44.534;18.694;2022-10-16T07:56:17;20.35;;;11.82;;
25824;SDS011;13658;44.534;18.694;2022-10-16T07:58:43;19.42;;;11.63;;
25824;SDS011;13658;44.534;18.694;2022-10-16T08:01:11;20.08;;;11.68;;
25824;SDS011;13658;44.534;18.694;2022-10-16T08:03:41;17.15;;;10.65;;
25824;SDS011;13658;44.534;18.694;2022-10-16T08:06:10;13.95;;;10.27;;
25824;SDS011;13658;44.534;18.694;2022-10-16T08:08:36;13.82;;;9.95;;
25824;SDS011;13658;44.534;18.694;2022-10-16T08:11:02;19.23;;;13.57;;
25824;SDS011;13658;44.534;18.694;2022-10-16T08:13:29;16.48;;;10.13;;
25824;SDS011;13658;44.534;18.694;2022-10-16T08:15:56;19.58;;;11.88;;
25824;SDS011;13658;44.534;18.694;2022-10-16T08:18:21;17.52;;;11.13;;
25824;SDS011;13658;44.534;18.694;2022-10-16T08:20:47;17.92;;;11.35;;
25824;SDS011;13658;44.534;18.694;2022-10-16T08:23:20;26.42;;;19.05;;
25824;SDS011;13658;44.534;18.694;2022-10-16T08:25:46;15.45;;;11.63;;
25824;SDS011;13658;44.534;18.694;2022-10-16T08:28:12;18.73;;;12.75;;
25824;SDS011;13658;44.534;18.694;2022-10-16T08:30:38;20.95;;;14.00;;
25824;SDS011;13658;44.534;18.694;2022-10-16T08:33:04;18.23;;;12.43;;
25824;SDS011;13658;44.534;18.694;2022-10-16T08:35:33;22.02;;;15.02;;
25824;SDS011;13658;44.534;18.694;2022-10-16T08:37:59;19.52;;;13.40;;
25824;SDS011;13658;44.534;18.694;2022-10-16T08:40:28;18.83;;;12.75;;
25824;SDS011;13658;44.534;18.694;2022-10-16T08:48:13;15.77;;;10.85;;
25824;SDS011;13658;44.534;18.694;2022-10-16T08:50:40;16.50;;;11.23;;
25824;SDS011;13658;44.534;18.694;2022-10-16T08:53:07;15.90;;;10.90;;
25824;SDS011;13658;44.534;18.694;2022-10-16T08:55:46;17.75;;;10.18;;
25824;SDS011;13658;44.534;18.694;2022-10-16T08:58:16;15.60;;;10.40;;
25824;SDS011;13658;44.534;18.694;2022-10-16T09:00:48;16.60;;;10.95;;
25824;SDS011;13658;44.534;18.694;2022-10-16T09:03:23;17.70;;;11.07;;
25824;SDS011;13658;44.534;18.694;2022-10-16T09:20:13;26.73;;;16.83;;
25824;SDS011;13658;44.534;18.694;2022-10-16T09:22:51;16.50;;;11.15;;
25824;SDS011;13658;44.534;18.694;2022-10-16T09:25:25;17.65;;;12.02;;
25824;SDS011;13658;44.534;18.694;2022-10-16T09:27:52;17.13;;;12.27;;
25824;SDS011;13658;44.534;18.694;2022-10-16T09:30:20;20.73;;;14.13;;
25824;SDS011;13658;44.534;18.694;2022-10-16T09:32:48;15.23;;;12.50;;
25824;SDS011;13658;44.534;18.694;2022-10-16T09:35:19;15.90;;;12.25;;
25824;SDS011;13658;44.534;18.694;2022-10-16T09:37:48;14.75;;;11.30;;
25824;SDS011;13658;44.534;18.694;2022-10-16T09:40:30;15.68;;;12.20;;
25824;SDS011;13658;44.534;18.694;2022-10-16T09:48:26;15.85;;;11.65;;
25824;SDS011;13658;44.534;18.694;2022-10-16T09:51:00;15.98;;;12.25;;
25824;SDS011;13658;44.534;18.694;2022-10-16T09:53:38;16.40;;;13.40;;
25824;SDS011;13658;44.534;18.694;2022-10-16T09:56:05;22.23;;;15.32;;
25824;SDS011;13658;44.534;18.694;2022-10-16T09:58:31;22.00;;;15.35;;
25824;SDS011;13658;44.534;18.694;2022-10-16T10:00:58;26.60;;;17.48;;
25824;SDS011;13658;44.534;18.694;2022-10-16T10:03:38;24.02;;;17.13;;
25824;SDS011;13658;44.534;18.694;2022-10-16T10:06:20;23.40;;;16.63;;
25824;SDS011;13658;44.534;18.694;2022-10-16T10:09:05;20.88;;;15.90;;
25824;SDS011;13658;44.534;18.694;2022-10-16T10:11:47;22.15;;;16.50;;
25824;SDS011;13658;44.534;18.694;2022-10-16T10:14:39;19.65;;;16.50;;
25824;SDS011;13658;44.534;18.694;2022-10-16T10:17:12;22.00;;;17.05;;
25824;SDS011;13658;44.534;18.694;2022-10-16T10:19:54;22.17;;;17.80;;
25824;SDS011;13658;44.534;18.694;2022-10-16T10:39:22;23.00;;;15.13;;
25824;SDS011;13658;44.534;18.694;2022-10-16T10:48:13;16.42;;;13.60;;
25824;SDS011;13658;44.534;18.694;2022-10-16T10:50:38;21.83;;;15.63;;
25824;SDS011;13658;44.534;18.694;2022-10-16T11:07:09;16.67;;;13.55;;
25824;SDS011;13658;44.534;18.694;2022-10-16T11:10:03;17.90;;;14.00;;
25824;SDS011;13658;44.534;18.694;2022-10-16T11:12:42;40.03;;;30.13;;
25824;SDS011;13658;44.534;18.694;2022-10-16T11:15:17;58.20;;;41.05;;
25824;SDS011;13658;44.534;18.694;2022-10-16T11:17:51;16.65;;;13.32;;
25824;SDS011;13658;44.534;18.694;2022-10-16T11:20:52;32.15;;;21.02;;
25824;SDS011;13658;44.534;18.694;2022-10-16T11:23:25;15.85;;;12.88;;
25824;SDS011;13658;44.534;18.694;2022-10-16T11:26:02;17.27;;;13.70;;
25824;SDS011;13658;44.534;18.694;2022-10-16T11:28:42;17.73;;;14.07;;
25824;SDS011;13658;44.534;18.694;2022-10-16T11:34:10;18.85;;;13.95;;
25824;SDS011;13658;44.534;18.694;2022-10-16T11:36:45;19.13;;;13.45;;
25824;SDS011;13658;44.534;18.694;2022-10-16T11:41:51;21.92;;;14.00;;
25824;SDS011;13658;44.534;18.694;2022-10-16T11:47:27;16.90;;;13.50;;
25824;SDS011;13658;44.534;18.694;2022-10-16T11:50:24;20.13;;;13.93;;
25824;SDS011;13658;44.534;18.694;2022-10-16T11:53:00;15.57;;;12.73;;
25824;SDS011;13658;44.534;18.694;2022-10-16T11:55:49;19.40;;;13.50;;
25824;SDS011;13658;44.534;18.694;2022-10-16T12:06:11;17.10;;;12.15;;
25824;SDS011;13658;44.534;18.694;2022-10-16T12:11:06;16.38;;;12.25;;
25824;SDS011;13658;44.534;18.694;2022-10-16T12:16:50;15.57;;;11.57;;
25824;SDS011;13658;44.534;18.694;2022-10-16T12:19:22;16.33;;;13.13;;
25824;SDS011;13658;44.534;18.694;2022-10-16T12:21:49;18.55;;;13.32;;
25824;SDS011;13658;44.534;18.694;2022-10-16T12:24:21;14.73;;;12.55;;
25824;SDS011;13658;44.534;18.694;2022-10-16T12:26:47;16.08;;;11.55;;
25824;SDS011;13658;44.534;18.694;2022-10-16T12:31:48;17.40;;;13.10;;
25824;SDS011;13658;44.534;18.694;2022-10-16T12:34:34;19.95;;;13.88;;
25824;SDS011;13658;44.534;18.694;2022-10-16T12:37:23;14.18;;;11.63;;
25824;SDS011;13658;44.534;18.694;2022-10-16T12:39:51;14.35;;;11.52;;
25824;SDS011;13658;44.534;18.694;2022-10-16T12:42:30;18.25;;;12.73;;
25824;SDS011;13658;44.534;18.694;2022-10-16T12:44:59;17.95;;;12.38;;
25824;SDS011;13658;44.534;18.694;2022-10-16T12:49:57;16.80;;;12.73;;
25824;SDS011;13658;44.534;18.694;2022-10-16T12:52:39;19.52;;;12.32;;
25824;SDS011;13658;44.534;18.694;2022-10-16T12:55:05;16.40;;;12.43;;
25824;SDS011;13658;44.534;18.694;2022-10-16T12:57:57;17.55;;;11.95;;
25824;SDS011;13658;44.534;18.694;2022-10-16T13:06:13;21.65;;;13.30;;
25824;SDS011;13658;44.534;18.694;2022-10-16T13:09:05;16.20;;;12.55;;
25824;SDS011;13658;44.534;18.694;2022-10-16T13:17:31;15.98;;;12.48;;
25824;SDS011;13658;44.534;18.694;2022-10-16T13:28:20;17.30;;;12.15;;
25824;SDS011;13658;44.534;18.694;2022-10-16T13:30:52;17.25;;;13.40;;
25824;SDS011;13658;44.534;18.694;2022-10-16T13:33:30;17.02;;;13.50;;
25824;SDS011;13658;44.534;18.694;2022-10-16T13:36:05;18.17;;;13.93;;
25824;SDS011;13658;44.534;18.694;2022-10-16T13:38:33;18.60;;;13.10;;
25824;SDS011;13658;44.534;18.694;2022-10-16T13:41:04;25.13;;;16.63;;
25824;SDS011;13658;44.534;18.694;2022-10-16T13:43:39;20.25;;;13.57;;
25824;SDS011;13658;44.534;18.694;2022-10-16T13:46:17;23.40;;;14.65;;
25824;SDS011;13658;44.534;18.694;2022-10-16T13:49:11;18.85;;;14.88;;
25824;SDS011;13658;44.534;18.694;2022-10-16T13:51:53;16.65;;;13.55;;
25824;SDS011;13658;44.534;18.694;2022-10-16T13:54:21;18.63;;;13.52;;
25824;SDS011;13658;44.534;18.694;2022-10-16T13:56:47;15.60;;;12.27;;
25824;SDS011;13658;44.534;18.694;2022-10-16T13:59:26;52.40;;;36.95;;
25824;SDS011;13658;44.534;18.694;2022-10-16T14:02:00;18.38;;;15.23;;
25824;SDS011;13658;44.534;18.694;2022-10-16T14:04:40;16.08;;;12.48;;
25824;SDS011;13658;44.534;18.694;2022-10-16T14:07:11;17.20;;;13.27;;
25824;SDS011;13658;44.534;18.694;2022-10-16T14:09:40;17.73;;;13.25;;
25824;SDS011;13658;44.534;18.694;2022-10-16T14:12:10;18.98;;;12.80;;
25824;SDS011;13658;44.534;18.694;2022-10-16T14:14:41;93.53;;;58.88;;
25824;SDS011;13658;44.534;18.694;2022-10-16T14:17:17;32.95;;;21.42;;
25824;SDS011;13658;44.534;18.694;2022-10-16T14:19:47;48.75;;;34.20;;
25824;SDS011;13658;44.534;18.694;2022-10-16T14:22:21;36.10;;;26.35;;
25824;SDS011;13658;44.534;18.694;2022-10-16T14:25:02;30.10;;;21.67;;
25824;SDS011;13658;44.534;18.694;2022-10-16T14:27:55;23.05;;;17.95;;
25824;SDS011;13658;44.534;18.694;2022-10-16T14:30:28;20.50;;;15.60;;
25824;SDS011;13658;44.534;18.694;2022-10-16T14:35:24;21.23;;;14.88;;
25824;SDS011;13658;44.534;18.694;2022-10-16T14:37:56;41.47;;;26.55;;
25824;SDS011;13658;44.534;18.694;2022-10-16T14:40:25;20.90;;;14.50;;
25824;SDS011;13658;44.534;18.694;2022-10-16T14:42:53;23.85;;;13.95;;
25824;SDS011;13658;44.534;18.694;2022-10-16T14:45:27;20.52;;;14.55;;
25824;SDS011;13658;44.534;18.694;2022-10-16T14:50:22;20.27;;;15.52;;
25824;SDS011;13658;44.534;18.694;2022-10-16T14:52:48;30.23;;;21.05;;
25824;SDS011;13658;44.534;18.694;2022-10-16T14:55:14;21.70;;;14.73;;
25824;SDS011;13658;44.534;18.694;2022-10-16T14:57:42;19.20;;;15.02;;
25824;SDS011;13658;44.534;18.694;2022-10-16T15:00:17;23.52;;;16.05;;
25824;SDS011;13658;44.534;18.694;2022-10-16T15:02:48;21.65;;;15.88;;
25824;SDS011;13658;44.534;18.694;2022-10-16T15:05:22;20.83;;;15.90;;
25824;SDS011;13658;44.534;18.694;2022-10-16T15:07:50;20.05;;;15.40;;
25824;SDS011;13658;44.534;18.694;2022-10-16T15:10:17;20.40;;;16.30;;
25824;SDS011;13658;44.534;18.694;2022-10-16T15:12:43;19.50;;;15.40;;
25824;SDS011;13658;44.534;18.694;2022-10-16T15:15:27;19.67;;;16.05;;
25824;SDS011;13658;44.534;18.694;2022-10-16T15:18:11;19.85;;;16.50;;
25824;SDS011;13658;44.534;18.694;2022-10-16T15:20:38;20.25;;;16.13;;
25824;SDS011;13658;44.534;18.694;2022-10-16T15:23:05;24.52;;;16.80;;
25824;SDS011;13658;44.534;18.694;2022-10-16T15:25:53;24.23;;;16.98;;
25824;SDS011;13658;44.534;18.694;2022-10-16T15:28:20;23.48;;;17.58;;
25824;SDS011;13658;44.534;18.694;2022-10-16T15:30:51;22.60;;;17.33;;
25824;SDS011;13658;44.534;18.694;2022-10-16T15:33:24;20.48;;;17.33;;
25824;SDS011;13658;44.534;18.694;2022-10-16T15:35:58;25.20;;;18.23;;
25824;SDS011;13658;44.534;18.694;2022-10-16T15:38:25;23.85;;;18.52;;
25824;SDS011;13658;44.534;18.694;2022-10-16T15:40:52;24.40;;;19.60;;
25824;SDS011;13658;44.534;18.694;2022-10-16T15:43:18;28.70;;;20.67;;
25824;SDS011;13658;44.534;18.694;2022-10-16T15:45:46;26.58;;;19.63;;
25824;SDS011;13658;44.534;18.694;2022-10-16T15:48:29;27.80;;;20.95;;
25824;SDS011;13658;44.534;18.694;2022-10-16T15:50:55;28.27;;;21.90;;
25824;SDS011;13658;44.534;18.694;2022-10-16T15:53:21;44.65;;;32.30;;
25824;SDS011;13658;44.534;18.694;2022-10-16T15:55:47;45.00;;;30.35;;
25824;SDS011;13658;44.534;18.694;2022-10-16T15:58:14;54.10;;;35.25;;
25824;SDS011;13658;44.534;18.694;2022-10-16T16:00:40;52.60;;;35.50;;
25824;SDS011;13658;44.534;18.694;2022-10-16T16:03:06;44.00;;;31.13;;
25824;SDS011;13658;44.534;18.694;2022-10-16T16:05:32;52.78;;;36.28;;
25824;SDS011;13658;44.534;18.694;2022-10-16T16:07:58;58.72;;;39.08;;
25824;SDS011;13658;44.534;18.694;2022-10-16T16:10:27;114.13;;;77.03;;
25824;SDS011;13658;44.534;18.694;2022-10-16T16:12:53;78.85;;;51.55;;
25824;SDS011;13658;44.534;18.694;2022-10-16T16:15:21;57.85;;;38.25;;
25824;SDS011;13658;44.534;18.694;2022-10-16T16:17:51;63.85;;;43.60;;
25824;SDS011;13658;44.534;18.694;2022-10-16T16:20:17;80.18;;;51.55;;
25824;SDS011;13658;44.534;18.694;2022-10-16T16:22:44;66.07;;;46.67;;
25824;SDS011;13658;44.534;18.694;2022-10-16T16:25:15;79.70;;;52.78;;
25824;SDS011;13658;44.534;18.694;2022-10-16T16:27:45;125.47;;;81.30;;
25824;SDS011;13658;44.534;18.694;2022-10-16T16:30:11;87.95;;;60.17;;
25824;SDS011;13658;44.534;18.694;2022-10-16T16:32:37;99.68;;;65.45;;
25824;SDS011;13658;44.534;18.694;2022-10-16T16:35:03;104.35;;;69.85;;
25824;SDS011;13658;44.534;18.694;2022-10-16T16:37:30;107.63;;;69.93;;
25824;SDS011;13658;44.534;18.694;2022-10-16T16:39:56;91.60;;;57.28;;
25824;SDS011;13658;44.534;18.694;2022-10-16T16:42:26;111.93;;;72.43;;